Marfa, TX

4:14 PM CDT on April 24, 2018 (GMT -0500)
Marfa Municipal

Weather History for KMRF - January, 2013

Change the Weather History Date:

Sunday, January 13, 2013

  Actual Average Record
Temperature  
Mean Temperature 30 °F -  
Max Temperature 42 °F 56 °F 69 °F (2017)
Min Temperature 19 °F 25 °F 10 °F (2011)
Degree Days  
Heating Degree Days 34    
Moisture  
Dew Point 14 °F    
Average Humidity 53    
Maximum Humidity 86    
Minimum Humidity 30    
Precipitation  
Precipitation 0.00 in - - ()
Sea Level Pressure  
Sea Level Pressure 30.03 in    
Wind  
Wind Speed - (North)    
Max Wind Speed -    
Max Gust Speed -    
Visibility 10 miles    
Events      
Averages and records for this station are not official NWS values.
T = Trace of Precipitation, MM = Missing Value Source: NWS Daily Summary

Daily Weather History Graph

Daily Weather History Graph

Search for Another Location

Airport or City:

Astronomy

Jan. 13, 2013 Rise Set
Actual Time 7:53 AM CST 6:16 PM CST
Civil Twilight 7:27 AM CST 6:42 PM CST
Nautical Twilight 6:58 AM CST 7:11 PM CST
Astronomical Twilight 6:29 AM CST 7:40 PM CST
Moon 9:05 AM CST (1/13) 8:43 PM CST (1/13)
Length of Visible Light 11h 14m
Length of Day
10h 22m
Waxing Crescent, 5% of the Moon is Illuminated
Jan 13
Waxing Crescent
Jan 18
First Quarter
Jan 26
Full
Feb 3
Last Quarter
Feb 10
New

Hourly Weather History & Observations

Time (CST) Temp. Dew Point Humidity Pressure Visibility Wind Dir Wind Speed Gust Speed Precip Events Conditions
12:15 AM 28.4 °F 14.0 °F 55% 30.02 in 10.0 mi North - - N/A   Clear
12:35 AM 28.4 °F 14.0 °F 55% 30.02 in 10.0 mi North - - N/A   Clear
12:55 AM 28.4 °F 14.0 °F 55% 30.03 in 10.0 mi North - - N/A   Clear
1:15 AM 26.6 °F 14.0 °F 59% 30.03 in 10.0 mi North - - N/A   Clear
1:35 AM 28.4 °F 12.2 °F 51% 30.03 in 10.0 mi North - - N/A   Clear
1:55 AM 26.6 °F 14.0 °F 59% 30.03 in 10.0 mi North - - N/A   Clear
2:15 AM 28.4 °F 10.4 °F 47% 30.03 in 10.0 mi North - - N/A   Clear
2:35 AM 28.4 °F 10.4 °F 47% 30.03 in 10.0 mi North - - N/A   Clear
2:55 AM 26.6 °F 12.2 °F 55% 30.04 in 10.0 mi North - - N/A   Clear
3:15 AM 26.6 °F 12.2 °F 55% 30.04 in 10.0 mi North - - N/A   Clear
3:35 AM 24.8 °F 12.2 °F 59% 30.04 in 10.0 mi North - - N/A   Clear
3:55 AM 21.2 °F 15.8 °F 80% 30.04 in 10.0 mi North - - N/A   Clear
4:15 AM 21.2 °F 15.8 °F 80% 30.04 in 10.0 mi North - - N/A   Clear
4:35 AM 23.0 °F 14.0 °F 68% 30.04 in 10.0 mi North - - N/A   Clear
4:55 AM 21.2 °F 14.0 °F 74% 30.04 in 10.0 mi North - - N/A   Clear
5:15 AM 21.2 °F 12.2 °F 68% 30.04 in 10.0 mi North - - N/A   Clear
5:35 AM 21.2 °F 14.0 °F 74% 30.06 in 10.0 mi North - - N/A   Clear
5:55 AM 19.4 °F 12.2 °F 74% 30.06 in 10.0 mi North - - N/A   Clear
6:15 AM 21.2 °F 12.2 °F 68% 30.06 in 10.0 mi North - - N/A   Clear
6:35 AM 19.4 °F 12.2 °F 74% 30.07 in 10.0 mi North - - N/A   Clear
6:55 AM 19.4 °F 14.0 °F 80% 30.08 in 10.0 mi North - - N/A   Clear
7:15 AM 19.4 °F 15.8 °F 86% 30.09 in 10.0 mi North - - N/A   Clear
7:35 AM 21.2 °F 14.0 °F 74% 30.09 in 10.0 mi North - - N/A   Clear
7:55 AM 19.4 °F 10.4 °F 68% 30.10 in 10.0 mi North - - N/A   Clear
8:15 AM 19.4 °F 10.4 °F 68% 30.10 in 10.0 mi North - - N/A   Clear
8:35 AM 24.8 °F 8.6 °F 50% 30.10 in 10.0 mi North - - N/A   Clear
8:55 AM 26.6 °F 12.2 °F 55% 30.11 in 10.0 mi North - - N/A   Clear
9:15 AM 28.4 °F 10.4 °F 47% 30.11 in 10.0 mi North - - N/A   Clear
9:35 AM 30.2 °F 8.6 °F 40% 30.12 in 10.0 mi North - - N/A   Clear
9:55 AM 30.2 °F 8.6 °F 40% 30.12 in 10.0 mi North - - N/A   Clear
10:15 AM 32.0 °F 10.4 °F 41% 30.12 in 10.0 mi North - - N/A   Clear
10:35 AM 33.8 °F 10.4 °F 38% 30.12 in 10.0 mi North - - N/A   Clear
10:55 AM 33.8 °F 8.6 °F 35% 30.11 in 10.0 mi North - - N/A   Clear
11:15 AM 33.8 °F 10.4 °F 38% 30.11 in 10.0 mi North - - N/A   Clear
11:35 AM 35.6 °F 10.4 °F 35% 30.10 in 10.0 mi North - - N/A   Clear
11:55 AM 35.6 °F 8.6 °F 33% 30.10 in 10.0 mi North - - N/A   Clear
12:15 PM 35.6 °F 8.6 °F 33% 30.09 in 10.0 mi North - - N/A   Clear
12:35 PM 37.4 °F 8.6 °F 30% 30.07 in 10.0 mi North - - N/A   Clear
12:55 PM 37.4 °F 10.4 °F 33% 30.06 in 10.0 mi North - - N/A   Clear
1:15 PM 37.4 °F 10.4 °F 33% 30.04 in 10.0 mi North - - N/A   Clear
1:35 PM 37.4 °F 12.2 °F 36% 30.03 in 10.0 mi North - - N/A   Clear
1:55 PM 39.2 °F 12.2 °F 33% 30.01 in 10.0 mi North - - N/A   Clear
2:15 PM 39.2 °F 12.2 °F 33% 30.01 in 10.0 mi North - - N/A   Clear
2:35 PM 39.2 °F 10.4 °F 31% 30.01 in 10.0 mi North - - N/A   Clear
2:55 PM 41.0 °F 12.2 °F 31% 30.00 in 10.0 mi North - - N/A   Clear
3:15 PM 41.0 °F 14.0 °F 33% 29.99 in 10.0 mi North - - N/A   Clear
3:35 PM 42.8 °F 15.8 °F 34% 29.99 in 10.0 mi North - - N/A   Clear
3:55 PM 42.8 °F 15.8 °F 34% 29.98 in 10.0 mi North - - N/A   Clear
4:15 PM 42.8 °F 15.8 °F 34% 29.98 in 10.0 mi North - - N/A   Clear
4:35 PM 42.8 °F 15.8 °F 34% 29.98 in 10.0 mi North - - N/A   Clear
4:55 PM 42.8 °F 15.8 °F 34% 29.98 in 10.0 mi North - - N/A   Clear
5:15 PM 42.8 °F 15.8 °F 34% 29.99 in 10.0 mi North - - N/A   Clear
5:35 PM 39.2 °F 15.8 °F 39% 29.99 in 10.0 mi North - - N/A   Clear
5:55 PM 37.4 °F 15.8 °F 41% 29.99 in 10.0 mi North - - N/A   Clear
6:15 PM 35.6 °F 15.8 °F 44% 29.98 in 10.0 mi North - - N/A   Clear
6:35 PM 33.8 °F 15.8 °F 48% 29.98 in 10.0 mi North - - N/A   Clear
6:55 PM 32.0 °F 17.6 °F 55% 29.98 in 10.0 mi North - - N/A   Clear
7:15 PM 30.2 °F 17.6 °F 60% 29.98 in 10.0 mi North - - N/A   Clear
7:35 PM 30.2 °F 19.4 °F 64% 29.98 in 10.0 mi North - - N/A   Clear
7:55 PM 28.4 °F 19.4 °F 69% 29.97 in 10.0 mi North - - N/A   Clear
8:15 PM 28.4 °F 19.4 °F 69% 29.99 in 10.0 mi North - - N/A   Clear
8:35 PM 28.4 °F 19.4 °F 69% 29.99 in 10.0 mi North - - N/A   Clear
8:55 PM 28.4 °F 17.6 °F 64% 29.99 in 10.0 mi North - - N/A   Clear
9:15 PM 28.4 °F 17.6 °F 64% 30.00 in 10.0 mi North - - N/A   Clear
9:35 PM 28.4 °F 17.6 °F 64% 30.00 in 10.0 mi North - - N/A   Clear
9:55 PM 28.4 °F 17.6 °F 64% 29.99 in 10.0 mi North - - N/A   Clear
10:15 PM 26.6 °F 17.6 °F 69% 29.99 in 10.0 mi North - - N/A   Clear
10:35 PM 26.6 °F 17.6 °F 69% 29.98 in 10.0 mi North - - N/A   Clear
10:55 PM 26.6 °F 17.6 °F 69% 29.98 in 10.0 mi North - - N/A   Clear
11:35 PM 26.6 °F 17.6 °F 69% 29.99 in 10.0 mi North - - N/A   Clear
11:55 PM 26.6 °F 17.6 °F 69% 30.01 in 10.0 mi North - - N/A   Clear